createdAt,value
2023-02-25T00:00:01.643Z,0.00
2023-02-25T00:01:01.655Z,0.00
2023-02-25T00:02:04.441Z,0.00
2023-02-25T00:03:01.670Z,0.00
2023-02-25T00:04:01.604Z,0.00
2023-02-25T00:05:01.605Z,0.00
2023-02-25T00:06:01.584Z,0.00
2023-02-25T00:07:01.593Z,0.00
2023-02-25T00:08:01.571Z,0.00
2023-02-25T00:09:01.558Z,0.00
2023-02-25T00:10:01.534Z,0.00
2023-02-25T00:11:01.550Z,0.00
2023-02-25T00:12:01.548Z,0.00
2023-02-25T00:13:17.123Z,0.00
2023-02-25T00:14:02.509Z,0.00
2023-02-25T00:15:01.492Z,0.00
2023-02-25T00:16:01.482Z,0.00
2023-02-25T00:17:01.540Z,0.00
2023-02-25T00:18:01.453Z,0.00
2023-02-25T00:19:01.445Z,0.00
2023-02-25T00:20:01.463Z,0.00
2023-02-25T00:21:01.423Z,0.00
2023-02-25T00:22:01.431Z,0.00
2023-02-25T00:23:01.394Z,0.00
2023-02-25T00:24:15.289Z,0.00
2023-02-25T00:25:02.377Z,0.00
2023-02-25T00:26:01.374Z,0.00
2023-02-25T00:27:01.385Z,0.00
2023-02-25T00:28:01.360Z,0.00
2023-02-25T00:29:01.335Z,0.00
2023-02-25T00:30:01.327Z,0.00
2023-02-25T00:31:01.406Z,0.00
2023-02-25T00:32:01.477Z,0.00
2023-02-25T00:33:01.306Z,0.00
2023-02-25T00:34:01.277Z,0.00
2023-02-25T00:35:01.280Z,0.00
2023-02-25T00:36:01.268Z,0.00
2023-02-25T00:37:01.311Z,0.00
2023-02-25T00:38:14.901Z,0.00
2023-02-25T00:39:02.322Z,0.00
2023-02-25T00:40:01.207Z,0.00
2023-02-25T00:41:01.221Z,0.00
2023-02-25T00:42:01.191Z,0.00
2023-02-25T00:43:01.179Z,0.00
2023-02-25T00:44:01.180Z,0.00
2023-02-25T00:45:01.166Z,0.00
2023-02-25T00:46:01.168Z,0.00
2023-02-25T00:47:01.140Z,0.00
2023-02-25T00:48:01.137Z,0.00
2023-02-25T00:49:01.118Z,0.00
2023-02-25T00:50:01.131Z,0.00
2023-02-25T00:51:01.113Z,0.00
2023-02-25T00:52:01.082Z,0.00
2023-02-25T00:53:01.089Z,0.00
2023-02-25T00:54:01.058Z,0.00
2023-02-25T00:55:01.055Z,0.00
2023-02-25T00:56:01.052Z,0.00
2023-02-25T00:57:01.044Z,0.00
2023-02-25T00:58:01.021Z,0.00
2023-02-25T00:59:01.013Z,0.00
2023-02-25T01:00:01.001Z,0.00
2023-02-25T01:01:01.002Z,0.00
2023-02-25T01:02:00.980Z,0.00
2023-02-25T01:03:01.028Z,0.00
2023-02-25T01:04:00.950Z,0.00
2023-02-25T01:05:00.950Z,0.00
2023-02-25T01:06:00.942Z,0.00
2023-02-25T01:07:02.787Z,0.00
2023-02-25T01:08:00.921Z,0.00
2023-02-25T01:09:00.919Z,0.00
2023-02-25T01:10:00.879Z,0.00
2023-02-25T01:11:00.898Z,0.00
2023-02-25T01:12:00.876Z,0.00
2023-02-25T01:13:00.863Z,0.00
2023-02-25T01:14:00.872Z,0.00
2023-02-25T01:15:00.844Z,0.00
2023-02-25T01:16:00.883Z,0.00
2023-02-25T01:17:00.818Z,0.00
2023-02-25T01:18:00.820Z,0.00
2023-02-25T01:19:00.816Z,0.00
2023-02-25T01:20:00.782Z,0.00
2023-02-25T01:21:00.787Z,0.00
2023-02-25T01:22:00.758Z,0.00
2023-02-25T01:23:00.765Z,0.00
2023-02-25T01:24:00.735Z,0.00
2023-02-25T01:25:00.728Z,0.00
2023-02-25T01:26:00.733Z,0.00
2023-02-25T01:27:00.707Z,0.00
2023-02-25T01:28:00.712Z,0.00
2023-02-25T01:29:00.688Z,0.00
2023-02-25T01:30:00.669Z,0.00
2023-02-25T01:31:00.767Z,0.00
2023-02-25T01:32:00.859Z,0.00
2023-02-25T01:33:00.747Z,0.00
2023-02-25T01:34:00.622Z,0.00
2023-02-25T01:35:00.625Z,0.00
2023-02-25T01:36:00.620Z,0.00
2023-02-25T01:37:00.601Z,0.00
2023-02-25T01:38:00.581Z,0.00
2023-02-25T01:39:00.584Z,0.00
2023-02-25T01:40:00.571Z,0.00
2023-02-25T01:41:00.580Z,0.00
2023-02-25T01:42:00.541Z,0.00
2023-02-25T01:43:00.554Z,0.00
2023-02-25T01:44:00.521Z,0.00
2023-02-25T01:45:00.522Z,0.00
2023-02-25T01:46:00.506Z,0.00
2023-02-25T01:47:00.524Z,0.00
2023-02-25T01:48:00.503Z,0.00
2023-02-25T01:49:00.475Z,0.00
2023-02-25T01:50:00.480Z,0.00
2023-02-25T01:51:00.464Z,0.00
2023-02-25T01:52:00.434Z,0.00
2023-02-25T01:53:00.438Z,0.00
2023-02-25T01:54:00.416Z,0.00
2023-02-25T01:55:00.414Z,0.00
2023-02-25T01:56:00.405Z,0.00
2023-02-25T01:57:00.387Z,0.00
2023-02-25T01:58:00.375Z,0.00
2023-02-25T01:59:00.366Z,0.00
2023-02-25T02:00:00.365Z,0.00
2023-02-25T02:01:00.405Z,0.00
2023-02-25T02:02:00.326Z,0.00
2023-02-25T02:03:00.335Z,0.00
2023-02-25T02:04:00.307Z,0.00
2023-02-25T02:05:00.305Z,0.00
2023-02-25T02:06:00.308Z,0.00
2023-02-25T02:07:00.286Z,0.00
2023-02-25T02:08:00.271Z,0.00
2023-02-25T02:09:00.258Z,0.00
2023-02-25T02:10:00.304Z,0.00
2023-02-25T02:11:00.268Z,0.00
2023-02-25T02:12:00.243Z,0.00
2023-02-25T02:13:00.217Z,0.00
2023-02-25T02:14:00.205Z,0.00
2023-02-25T02:15:00.203Z,0.00
2023-02-25T02:16:00.246Z,0.00
2023-02-25T02:17:00.187Z,0.00
2023-02-25T02:18:00.177Z,0.00
2023-02-25T02:19:00.168Z,0.00
2023-02-25T02:20:00.171Z,0.00
2023-02-25T02:21:00.137Z,0.00
2023-02-25T02:22:00.120Z,0.00
2023-02-25T02:23:00.109Z,0.00
2023-02-25T02:24:00.126Z,0.00
2023-02-25T02:25:00.128Z,0.00
2023-02-25T02:26:00.107Z,0.00
2023-02-25T02:27:00.094Z,0.00
2023-02-25T02:28:00.047Z,0.00
2023-02-25T02:29:00.087Z,0.00
2023-02-25T02:30:00.049Z,0.00
2023-02-25T02:31:00.065Z,0.00
2023-02-25T02:32:00.178Z,0.00
2023-02-25T02:33:00.018Z,0.00
2023-02-25T02:33:59.988Z,0.00
2023-02-25T02:34:59.989Z,0.00
2023-02-25T02:36:00.002Z,0.00
2023-02-25T02:36:59.957Z,0.00
2023-02-25T02:37:59.949Z,0.00
2023-02-25T02:38:59.937Z,0.00
2023-02-25T02:39:59.928Z,0.00
2023-02-25T02:40:59.939Z,0.00
2023-02-25T02:41:59.898Z,0.00
2023-02-25T02:42:59.897Z,0.00
2023-02-25T02:43:59.900Z,0.00
2023-02-25T02:44:59.884Z,0.00
2023-02-25T02:45:59.909Z,0.00
2023-02-25T02:46:59.855Z,0.00
2023-02-25T02:47:59.905Z,0.00
2023-02-25T02:48:59.839Z,0.00
2023-02-25T02:49:59.815Z,0.00
2023-02-25T02:50:59.827Z,0.00
2023-02-25T02:51:59.786Z,0.00
2023-02-25T02:52:59.783Z,0.00
2023-02-25T02:53:59.771Z,0.00
2023-02-25T02:54:59.764Z,0.00
2023-02-25T02:55:59.764Z,0.00
2023-02-25T02:56:59.754Z,0.00
2023-02-25T02:57:59.730Z,0.00
2023-02-25T02:58:59.752Z,0.00
2023-02-25T02:59:59.704Z,0.00
2023-02-25T03:00:59.766Z,0.00
2023-02-25T03:01:59.702Z,0.00
2023-02-25T03:02:59.674Z,0.00
2023-02-25T03:03:59.761Z,0.00
2023-02-25T03:04:59.655Z,0.00
2023-02-25T03:05:59.646Z,0.00
2023-02-25T03:06:59.642Z,0.00
2023-02-25T03:07:59.623Z,0.00
2023-02-25T03:08:59.617Z,0.00
2023-02-25T03:09:59.596Z,0.00
2023-02-25T03:10:59.593Z,0.00
2023-02-25T03:11:59.603Z,0.00
2023-02-25T03:12:59.572Z,0.00
2023-02-25T03:13:59.563Z,0.00
2023-02-25T03:14:59.544Z,0.00
2023-02-25T03:15:59.537Z,0.00
2023-02-25T03:16:59.582Z,0.00
2023-02-25T03:17:59.518Z,0.00
2023-02-25T03:18:59.512Z,0.00
2023-02-25T03:19:59.487Z,0.00
2023-02-25T03:20:59.498Z,0.00
2023-02-25T03:21:59.482Z,0.00
2023-02-25T03:22:59.469Z,0.00
2023-02-25T03:23:59.481Z,0.00
2023-02-25T03:24:59.447Z,0.00
2023-02-25T03:25:59.433Z,0.00
2023-02-25T03:26:59.441Z,0.00
2023-02-25T03:27:59.402Z,0.00
2023-02-25T03:28:59.405Z,0.00
2023-02-25T03:29:59.401Z,0.00
2023-02-25T03:30:59.447Z,0.00
2023-02-25T03:31:59.528Z,0.00
2023-02-25T03:32:59.366Z,0.00
2023-02-25T03:33:59.354Z,0.00
2023-02-25T03:34:59.370Z,0.00
2023-02-25T03:35:59.325Z,0.00
2023-02-25T03:36:59.313Z,0.00
2023-02-25T03:37:59.305Z,0.00
2023-02-25T03:38:59.295Z,0.00
2023-02-25T03:39:59.306Z,0.00
2023-02-25T03:40:59.275Z,0.00
2023-02-25T03:41:59.266Z,0.00
2023-02-25T03:42:59.248Z,0.00
2023-02-25T03:43:59.248Z,0.00
2023-02-25T03:44:59.237Z,0.00
2023-02-25T03:45:59.230Z,0.00
2023-02-25T03:46:59.218Z,0.00
2023-02-25T03:47:59.209Z,0.00
2023-02-25T03:48:59.185Z,0.00
2023-02-25T03:49:59.229Z,0.00
2023-02-25T03:50:59.176Z,0.00
2023-02-25T03:51:59.169Z,0.00
2023-02-25T03:52:59.149Z,0.00
2023-02-25T03:53:59.286Z,0.00
2023-02-25T03:54:59.127Z,0.00
2023-02-25T03:55:59.119Z,0.00
2023-02-25T03:56:59.094Z,0.00
2023-02-25T03:57:59.096Z,0.00
2023-02-25T03:58:59.073Z,0.00
2023-02-25T03:59:59.083Z,0.00
2023-02-25T04:00:59.118Z,0.00
2023-02-25T04:01:59.060Z,0.00
2023-02-25T04:02:59.032Z,0.00
2023-02-25T04:03:59.024Z,0.00
2023-02-25T04:04:59.062Z,0.00
2023-02-25T04:05:59.002Z,0.00
2023-02-25T04:06:59.000Z,0.00
2023-02-25T04:07:59.002Z,0.00
2023-02-25T04:08:58.972Z,0.00
2023-02-25T04:09:58.952Z,0.00
2023-02-25T04:10:58.943Z,0.00
2023-02-25T04:11:58.951Z,0.00
2023-02-25T04:12:58.926Z,0.00
2023-02-25T04:13:58.918Z,0.00
2023-02-25T04:14:58.901Z,0.00
2023-02-25T04:15:58.987Z,0.00
2023-02-25T04:16:58.900Z,0.00
2023-02-25T04:17:59.858Z,0.00
2023-02-25T04:18:58.850Z,0.00
2023-02-25T04:19:58.852Z,0.00
2023-02-25T04:20:58.842Z,0.00
2023-02-25T04:21:58.832Z,0.00
2023-02-25T04:22:58.811Z,0.00
2023-02-25T04:23:58.813Z,0.00
2023-02-25T04:24:58.796Z,0.00
2023-02-25T04:25:58.791Z,0.00
2023-02-25T04:26:58.792Z,0.00
2023-02-25T04:27:58.755Z,0.00
2023-02-25T04:28:58.761Z,0.00
2023-02-25T04:29:58.732Z,0.00
2023-02-25T04:30:58.859Z,0.00
2023-02-25T04:31:58.851Z,0.00
2023-02-25T04:32:58.712Z,0.00
2023-02-25T04:33:58.704Z,0.00
2023-02-25T04:34:58.683Z,0.00
2023-02-25T04:35:58.708Z,0.00
2023-02-25T04:36:58.668Z,0.00
2023-02-25T04:37:58.652Z,0.00
2023-02-25T04:38:58.652Z,0.00
2023-02-25T04:39:58.640Z,0.00
2023-02-25T04:40:58.650Z,0.00
2023-02-25T04:41:58.624Z,0.00
2023-02-25T04:42:58.595Z,0.00
2023-02-25T04:43:58.613Z,0.00
2023-02-25T04:44:58.584Z,0.00
2023-02-25T04:45:58.602Z,0.00
2023-02-25T04:46:58.583Z,0.00
2023-02-25T04:47:58.549Z,0.00
2023-02-25T04:48:58.536Z,0.00
2023-02-25T04:49:58.524Z,0.00
2023-02-25T04:50:58.534Z,0.00
2023-02-25T04:51:58.509Z,0.00
2023-02-25T04:52:58.515Z,0.00
2023-02-25T04:53:58.476Z,0.00
2023-02-25T04:54:58.467Z,0.00
2023-02-25T04:55:58.467Z,0.00
2023-02-25T04:56:58.506Z,0.00
2023-02-25T04:57:58.448Z,0.00
2023-02-25T04:58:58.437Z,0.00
2023-02-25T04:59:58.450Z,0.00
2023-02-25T05:00:58.417Z,0.00
2023-02-25T05:01:58.450Z,0.00
2023-02-25T05:02:58.388Z,0.00
2023-02-25T05:03:58.369Z,0.00
2023-02-25T05:04:58.403Z,0.00
2023-02-25T05:05:58.347Z,0.00
2023-02-25T05:06:58.358Z,0.00
2023-02-25T05:07:58.329Z,0.00
2023-02-25T05:08:58.318Z,0.00
2023-02-25T05:09:58.321Z,0.00
2023-02-25T05:10:58.324Z,0.00
2023-02-25T05:11:58.298Z,0.00
2023-02-25T05:12:58.278Z,0.00
2023-02-25T05:13:58.274Z,0.00
2023-02-25T05:14:58.260Z,0.00
2023-02-25T05:15:58.267Z,0.00
2023-02-25T05:16:58.722Z,0.00
2023-02-25T05:17:58.447Z,0.00
2023-02-25T05:18:58.210Z,0.00
2023-02-25T05:19:58.240Z,0.00
2023-02-25T05:20:58.204Z,0.00
2023-02-25T05:21:58.207Z,0.00
2023-02-25T05:22:58.171Z,0.00
2023-02-25T05:23:58.162Z,0.00
2023-02-25T05:24:58.152Z,0.00
2023-02-25T05:25:58.132Z,0.00
2023-02-25T05:26:58.145Z,0.00
2023-02-25T05:27:58.111Z,0.00
2023-02-25T05:28:58.111Z,0.00
2023-02-25T05:29:58.132Z,0.00
2023-02-25T05:30:58.167Z,0.00
2023-02-25T05:31:58.188Z,0.00
2023-02-25T05:32:58.109Z,0.00
2023-02-25T05:33:58.051Z,0.00
2023-02-25T05:34:58.049Z,0.00
2023-02-25T05:35:58.031Z,0.00
2023-02-25T05:36:58.046Z,0.00
2023-02-25T05:37:58.029Z,0.00
2023-02-25T05:38:58.013Z,0.00
2023-02-25T05:39:57.995Z,0.00
2023-02-25T05:40:58.012Z,0.00
2023-02-25T05:41:58.290Z,0.00
2023-02-25T05:42:57.959Z,0.00
2023-02-25T05:43:57.942Z,0.00
2023-02-25T05:44:57.945Z,0.00
2023-02-25T05:45:57.930Z,0.00
2023-02-25T05:46:57.989Z,0.00
2023-02-25T05:47:57.913Z,0.00
2023-02-25T05:48:57.895Z,0.00
2023-02-25T05:49:57.873Z,0.00
2023-02-25T05:50:57.881Z,0.00
2023-02-25T05:51:57.875Z,0.00
2023-02-25T05:52:57.852Z,0.00
2023-02-25T05:53:57.834Z,0.00
2023-02-25T05:54:57.838Z,4.00
2023-02-25T05:55:57.811Z,4.00
2023-02-25T05:56:57.841Z,0.00
2023-02-25T05:57:57.793Z,4.00
2023-02-25T05:58:57.780Z,0.00
2023-02-25T05:59:57.773Z,4.00
2023-02-25T06:00:57.770Z,4.00
2023-02-25T06:01:57.863Z,8.00
2023-02-25T06:02:57.765Z,8.00
2023-02-25T06:03:57.724Z,12.00
2023-02-25T06:04:57.751Z,8.00
2023-02-25T06:05:57.726Z,12.00
2023-02-25T06:06:57.710Z,16.00
2023-02-25T06:07:57.717Z,16.00
2023-02-25T06:08:57.682Z,24.00
2023-02-25T06:09:57.660Z,28.00
2023-02-25T06:10:57.671Z,28.00
2023-02-25T06:11:57.664Z,36.00
2023-02-25T06:12:57.631Z,36.00
2023-02-25T06:13:57.620Z,40.00
2023-02-25T06:14:57.610Z,44.00
2023-02-25T06:15:57.602Z,52.00
2023-02-25T06:16:57.614Z,56.00
2023-02-25T06:17:57.585Z,64.00
2023-02-25T06:18:57.569Z,72.00
2023-02-25T06:19:57.567Z,84.00
2023-02-25T06:20:57.561Z,92.00
2023-02-25T06:21:57.551Z,100.00
2023-02-25T06:22:57.531Z,108.00
2023-02-25T06:23:57.515Z,124.00
2023-02-25T06:24:57.499Z,136.00
2023-02-25T06:25:57.495Z,152.00
2023-02-25T06:26:57.497Z,168.00
2023-02-25T06:27:57.480Z,184.00
2023-02-25T06:28:57.476Z,200.00
2023-02-25T06:30:00.228Z,220.00
2023-02-25T06:30:57.449Z,240.00
2023-02-25T06:31:57.532Z,264.00
2023-02-25T06:32:57.423Z,284.00
2023-02-25T06:33:57.414Z,316.00
2023-02-25T06:34:57.396Z,340.00
2023-02-25T06:35:57.381Z,368.00
2023-02-25T06:36:57.381Z,392.00
2023-02-25T06:37:57.376Z,420.00
2023-02-25T06:38:57.351Z,444.00
2023-02-25T06:39:57.348Z,468.00
2023-02-25T06:40:57.343Z,484.00
2023-02-25T06:41:57.345Z,504.00
2023-02-25T06:42:57.302Z,540.00
2023-02-25T06:43:57.303Z,568.00
2023-02-25T06:44:57.298Z,596.00
2023-02-25T06:45:57.346Z,624.00
2023-02-25T06:46:57.288Z,660.00
2023-02-25T06:47:57.267Z,704.00
2023-02-25T06:48:57.247Z,760.00
2023-02-25T06:49:57.244Z,824.00
2023-02-25T06:50:57.234Z,864.00
2023-02-25T06:51:57.224Z,860.00
2023-02-25T06:52:57.214Z,888.00
2023-02-25T06:53:57.193Z,948.00
2023-02-25T06:54:57.185Z,1032.00
2023-02-25T06:55:57.173Z,1084.00
2023-02-25T06:56:57.175Z,1084.00
2023-02-25T06:57:57.166Z,1132.00
2023-02-25T06:58:57.145Z,1240.00
2023-02-25T06:59:57.134Z,1344.00
2023-02-25T07:00:57.333Z,1456.00
2023-02-25T07:01:57.128Z,1520.00
2023-02-25T07:02:57.116Z,1576.00
2023-02-25T07:03:57.098Z,1612.00
2023-02-25T07:04:57.074Z,1644.00
2023-02-25T07:05:57.071Z,1660.00
2023-02-25T07:06:57.061Z,1648.00
2023-02-25T07:07:57.044Z,1644.00
2023-02-25T07:08:57.198Z,1660.00
2023-02-25T07:09:57.035Z,1712.00
2023-02-25T07:10:57.033Z,1788.00
2023-02-25T07:11:57.025Z,1860.00
2023-02-25T07:12:56.982Z,1940.00
2023-02-25T07:13:56.982Z,2056.00
2023-02-25T07:14:56.964Z,2132.00
2023-02-25T07:15:56.984Z,2116.00
2023-02-25T07:16:57.107Z,2096.00
2023-02-25T07:17:56.939Z,2100.00
2023-02-25T07:18:56.917Z,2136.00
2023-02-25T07:19:56.916Z,2148.00
2023-02-25T07:20:56.911Z,2156.00
2023-02-25T07:21:56.896Z,2200.00
2023-02-25T07:22:56.908Z,2248.00
2023-02-25T07:23:56.875Z,2256.00
2023-02-25T07:24:57.078Z,2308.00
2023-02-25T07:25:56.869Z,2412.00
2023-02-25T07:26:56.846Z,2432.00
2023-02-25T07:27:56.831Z,2440.00
2023-02-25T07:28:56.855Z,2544.00
2023-02-25T07:29:56.830Z,2668.00
2023-02-25T07:30:56.938Z,2796.00
2023-02-25T07:31:57.142Z,2852.00
2023-02-25T07:32:56.994Z,2872.00
2023-02-25T07:33:56.772Z,3028.00
2023-02-25T07:34:56.748Z,3232.00
2023-02-25T07:35:56.744Z,3276.00
2023-02-25T07:36:56.735Z,3152.00
2023-02-25T07:37:56.726Z,2864.00
2023-02-25T07:38:56.707Z,2748.00
2023-02-25T07:39:56.866Z,2740.00
2023-02-25T07:40:56.730Z,2712.00
2023-02-25T07:41:56.812Z,2900.00
2023-02-25T07:42:57.042Z,3052.00
2023-02-25T07:43:56.665Z,2984.00
2023-02-25T07:44:56.649Z,2908.00
2023-02-25T07:45:56.658Z,2640.00
2023-02-25T07:46:56.621Z,2740.00
2023-02-25T07:47:56.630Z,3028.00
2023-02-25T07:48:56.599Z,3300.00
2023-02-25T07:49:56.591Z,3648.00
2023-02-25T07:50:56.698Z,4124.00
2023-02-25T07:51:56.582Z,4568.00
2023-02-25T07:52:56.581Z,4736.00
2023-02-25T07:53:56.554Z,4536.00
2023-02-25T07:54:56.539Z,4284.00
2023-02-25T07:55:56.535Z,4408.00
2023-02-25T07:56:56.513Z,4740.00
2023-02-25T07:57:56.532Z,5132.00
2023-02-25T07:58:56.492Z,5236.00
2023-02-25T07:59:56.487Z,5012.00
2023-02-25T08:00:56.481Z,4936.00
2023-02-25T08:01:56.462Z,4844.00
2023-02-25T08:02:56.483Z,4308.00
2023-02-25T08:03:56.462Z,3756.00
2023-02-25T08:04:56.429Z,3928.00
2023-02-25T08:05:56.424Z,4084.00
2023-02-25T08:06:56.406Z,4384.00
2023-02-25T08:07:56.394Z,4588.00
2023-02-25T08:08:56.386Z,4560.00
2023-02-25T08:09:56.390Z,4560.00
2023-02-25T08:10:56.379Z,4636.00
2023-02-25T08:11:56.790Z,4844.00
2023-02-25T08:12:56.365Z,5080.00
2023-02-25T08:13:56.344Z,5288.00
2023-02-25T08:14:56.345Z,5412.00
2023-02-25T08:15:56.365Z,5504.00
2023-02-25T08:16:56.311Z,5640.00
2023-02-25T08:17:56.284Z,6016.00
2023-02-25T08:18:56.276Z,6392.00
2023-02-25T08:19:56.271Z,6532.00
2023-02-25T08:20:56.257Z,6704.00
2023-02-25T08:21:56.258Z,6848.00
2023-02-25T08:22:56.228Z,6884.00
2023-02-25T08:23:56.235Z,7320.00
2023-02-25T08:24:56.206Z,7884.00
2023-02-25T08:25:56.197Z,8332.00
2023-02-25T08:26:56.201Z,8624.00
2023-02-25T08:27:56.174Z,8948.00
2023-02-25T08:28:56.165Z,9136.00
2023-02-25T08:29:56.157Z,9580.00
2023-02-25T08:30:56.261Z,9552.00
2023-02-25T08:31:56.381Z,8944.00
2023-02-25T08:32:56.146Z,8292.00
2023-02-25T08:33:56.107Z,7796.00
2023-02-25T08:34:56.114Z,7720.00
2023-02-25T08:35:56.117Z,7988.00
2023-02-25T08:36:56.087Z,8468.00
2023-02-25T08:37:56.125Z,9144.00
2023-02-25T08:38:56.061Z,9900.00
2023-02-25T08:39:56.050Z,11548.00
2023-02-25T08:40:56.113Z,13304.00
2023-02-25T08:41:56.059Z,14048.00
2023-02-25T08:42:56.018Z,14040.00
2023-02-25T08:43:56.008Z,13756.00
2023-02-25T08:44:55.999Z,14000.00
2023-02-25T08:45:55.979Z,15200.00
2023-02-25T08:46:56.066Z,16332.00
2023-02-25T08:47:55.958Z,16896.00
2023-02-25T08:48:55.970Z,15856.00
2023-02-25T08:49:55.937Z,16048.00
2023-02-25T08:50:55.967Z,16436.00
2023-02-25T08:51:55.915Z,18368.00
2023-02-25T08:52:55.957Z,20064.00
2023-02-25T08:53:55.891Z,19712.00
2023-02-25T08:54:55.894Z,19680.00
2023-02-25T08:55:55.870Z,21920.00
2023-02-25T08:56:56.018Z,23040.00
2023-02-25T08:57:55.848Z,22080.00
2023-02-25T08:58:55.849Z,22560.00
2023-02-25T08:59:55.836Z,22272.00
2023-02-25T09:00:55.882Z,22624.00
2023-02-25T09:02:01.655Z,21600.00
2023-02-25T09:02:55.796Z,21152.00
2023-02-25T09:03:55.776Z,20160.00
2023-02-25T09:04:55.818Z,21408.00
2023-02-25T09:05:55.762Z,21760.00
2023-02-25T09:06:55.762Z,19424.00
2023-02-25T09:07:55.740Z,15828.00
2023-02-25T09:08:55.856Z,13460.00
2023-02-25T09:09:55.737Z,13212.00
2023-02-25T09:10:55.722Z,13796.00
2023-02-25T09:11:55.704Z,14452.00
2023-02-25T09:12:55.686Z,13044.00
2023-02-25T09:13:55.681Z,10464.00
2023-02-25T09:14:55.657Z,8968.00
2023-02-25T09:15:55.647Z,8632.00
2023-02-25T09:16:55.690Z,9460.00
2023-02-25T09:17:55.629Z,9084.00
2023-02-25T09:18:55.607Z,7376.00
2023-02-25T09:19:55.611Z,5400.00
2023-02-25T09:20:55.608Z,4048.00
2023-02-25T09:21:55.686Z,3340.00
2023-02-25T09:22:57.334Z,3348.00
2023-02-25T09:23:55.570Z,4192.00
2023-02-25T09:24:55.558Z,4872.00
2023-02-25T09:25:55.546Z,4636.00
2023-02-25T09:26:55.531Z,5724.00
2023-02-25T09:27:55.514Z,7564.00
2023-02-25T09:28:55.519Z,8104.00
2023-02-25T09:29:55.528Z,6300.00
2023-02-25T09:30:55.515Z,4200.00
2023-02-25T09:31:55.587Z,4900.00
2023-02-25T09:32:55.538Z,5472.00
2023-02-25T09:33:55.456Z,5068.00
2023-02-25T09:34:55.443Z,4388.00
2023-02-25T09:35:55.441Z,3448.00
2023-02-25T09:36:55.430Z,3960.00
2023-02-25T09:37:55.581Z,5260.00
2023-02-25T09:38:55.408Z,5360.00
2023-02-25T09:39:55.385Z,5412.00
2023-02-25T09:40:55.394Z,6464.00
2023-02-25T09:41:55.894Z,6232.00
2023-02-25T09:42:55.353Z,5604.00
2023-02-25T09:43:55.343Z,5660.00
2023-02-25T09:44:55.339Z,4588.00
2023-02-25T09:45:55.356Z,3620.00
2023-02-25T09:46:55.331Z,3328.00
2023-02-25T09:47:55.363Z,3656.00
2023-02-25T09:48:55.279Z,4520.00
2023-02-25T09:49:55.284Z,5288.00
2023-02-25T09:50:55.263Z,5896.00
2023-02-25T09:51:55.293Z,5452.00
2023-02-25T09:52:55.244Z,4364.00
2023-02-25T09:53:55.281Z,4492.00
2023-02-25T09:54:55.217Z,5744.00
2023-02-25T09:55:55.215Z,8568.00
2023-02-25T09:56:55.229Z,11588.00
2023-02-25T09:57:55.197Z,20192.00
2023-02-25T09:58:55.181Z,25408.00
2023-02-25T09:59:55.178Z,26048.00
2023-02-25T10:00:55.638Z,28064.00
2023-02-25T10:01:55.209Z,30784.00
2023-02-25T10:02:55.243Z,30752.00
2023-02-25T10:03:55.148Z,26880.00
2023-02-25T10:04:55.118Z,22784.00
2023-02-25T10:05:55.109Z,27968.00
2023-02-25T10:06:55.099Z,26976.00
2023-02-25T10:07:55.101Z,23520.00
2023-02-25T10:08:55.080Z,26976.00
2023-02-25T10:09:55.121Z,25888.00
2023-02-25T10:10:55.061Z,23744.00
2023-02-25T10:11:55.059Z,23872.00
2023-02-25T10:12:55.031Z,22272.00
2023-02-25T10:13:55.016Z,21408.00
2023-02-25T10:14:55.039Z,18272.00
2023-02-25T10:15:55.019Z,20832.00
2023-02-25T10:16:55.081Z,22176.00
2023-02-25T10:17:55.087Z,22080.00
2023-02-25T10:18:55.022Z,23424.00
2023-02-25T10:19:54.963Z,24832.00
2023-02-25T10:20:54.962Z,26624.00
2023-02-25T10:21:54.932Z,27424.00
2023-02-25T10:22:54.925Z,27296.00
2023-02-25T10:23:54.922Z,28064.00
2023-02-25T10:24:54.914Z,27712.00
2023-02-25T10:25:54.907Z,27648.00
2023-02-25T10:26:54.913Z,17920.00
2023-02-25T10:27:54.874Z,16608.00
2023-02-25T10:28:54.854Z,17024.00
2023-02-25T10:29:54.865Z,19264.00
2023-02-25T10:30:54.945Z,19904.00
2023-02-25T10:31:55.537Z,17728.00
2023-02-25T10:32:54.932Z,17088.00
2023-02-25T10:33:54.827Z,14500.00
2023-02-25T10:34:54.793Z,11504.00
2023-02-25T10:35:54.785Z,10160.00
2023-02-25T10:36:54.785Z,12140.00
2023-02-25T10:37:54.772Z,13324.00
2023-02-25T10:38:54.757Z,11744.00
2023-02-25T10:39:54.744Z,9892.00
2023-02-25T10:40:54.738Z,10492.00
2023-02-25T10:41:54.865Z,11508.00
2023-02-25T10:42:54.723Z,13544.00
2023-02-25T10:43:54.704Z,12760.00
2023-02-25T10:44:54.685Z,12168.00
2023-02-25T10:45:54.691Z,13260.00
2023-02-25T10:46:54.711Z,11176.00
2023-02-25T10:47:54.666Z,10472.00
2023-02-25T10:48:54.644Z,10540.00
2023-02-25T10:49:54.636Z,11048.00
2023-02-25T10:50:54.616Z,14300.00
2023-02-25T10:51:54.626Z,19168.00
2023-02-25T10:52:54.650Z,18080.00
2023-02-25T10:53:54.598Z,17696.00
2023-02-25T10:54:54.625Z,14492.00
2023-02-25T10:55:54.631Z,13720.00
2023-02-25T10:56:54.576Z,15244.00
2023-02-25T10:57:54.546Z,18304.00
2023-02-25T10:58:54.536Z,23232.00
2023-02-25T10:59:54.534Z,29440.00
2023-02-25T11:00:54.516Z,29600.00
2023-02-25T11:01:54.620Z,28096.00
2023-02-25T11:02:54.516Z,24384.00
2023-02-25T11:03:54.639Z,22144.00
2023-02-25T11:04:54.471Z,19808.00
2023-02-25T11:05:54.468Z,17152.00
2023-02-25T11:06:54.459Z,15748.00
2023-02-25T11:07:54.448Z,15396.00
2023-02-25T11:08:54.428Z,16680.00
2023-02-25T11:09:54.423Z,15912.00
2023-02-25T11:10:54.401Z,14368.00
2023-02-25T11:11:54.413Z,12840.00
2023-02-25T11:12:54.380Z,11796.00
2023-02-25T11:13:54.375Z,12456.00
2023-02-25T11:14:54.360Z,14252.00
2023-02-25T11:15:54.403Z,18208.00
2023-02-25T11:16:54.351Z,23200.00
2023-02-25T11:17:54.350Z,26720.00
2023-02-25T11:18:54.321Z,30848.00
2023-02-25T11:20:01.551Z,24352.00
2023-02-25T11:20:54.291Z,22880.00
2023-02-25T11:21:54.417Z,21120.00
2023-02-25T11:22:54.273Z,19008.00
2023-02-25T11:23:54.310Z,16896.00
2023-02-25T11:24:54.263Z,14200.00
2023-02-25T11:25:54.244Z,12756.00
2023-02-25T11:26:54.245Z,9940.00
2023-02-25T11:27:54.214Z,6192.00
2023-02-25T11:28:54.208Z,3732.00
2023-02-25T11:29:54.196Z,2708.00
2023-02-25T11:30:54.306Z,3120.00
2023-02-25T11:31:54.395Z,5444.00
2023-02-25T11:32:54.206Z,7736.00
2023-02-25T11:33:54.148Z,8020.00
2023-02-25T11:34:54.137Z,7352.00
2023-02-25T11:35:54.134Z,7052.00
2023-02-25T11:36:54.136Z,7608.00
2023-02-25T11:37:54.127Z,7952.00
2023-02-25T11:38:54.104Z,7968.00
2023-02-25T11:39:54.089Z,7772.00
2023-02-25T11:40:54.074Z,7904.00
2023-02-25T11:41:54.081Z,9820.00
2023-02-25T11:42:54.046Z,12168.00
2023-02-25T11:43:54.045Z,14828.00
2023-02-25T11:44:54.025Z,16168.00
2023-02-25T11:45:54.015Z,15964.00
2023-02-25T11:46:54.024Z,14264.00
2023-02-25T11:47:53.995Z,13908.00
2023-02-25T11:48:53.984Z,14756.00
2023-02-25T11:49:54.035Z,13756.00
2023-02-25T11:50:53.972Z,12612.00
2023-02-25T11:51:53.971Z,13148.00
2023-02-25T11:52:53.946Z,15620.00
2023-02-25T11:53:53.972Z,18464.00
2023-02-25T11:54:53.928Z,22016.00
2023-02-25T11:55:53.925Z,25504.00
2023-02-25T11:56:53.925Z,29920.00
2023-02-25T11:57:53.885Z,33824.00
2023-02-25T11:58:53.880Z,57696.00
2023-02-25T11:59:53.865Z,39680.00
2023-02-25T12:00:53.856Z,34112.00
2023-02-25T12:01:53.856Z,33728.00
2023-02-25T12:02:53.841Z,32864.00
2023-02-25T12:03:53.821Z,31936.00
2023-02-25T12:04:53.807Z,33376.00
2023-02-25T12:05:53.853Z,33792.00
2023-02-25T12:06:53.810Z,37792.00
2023-02-25T12:08:11.933Z,36992.00
2023-02-25T12:08:54.768Z,44000.00
2023-02-25T12:09:53.756Z,47456.00
2023-02-25T12:10:53.751Z,46144.00
2023-02-25T12:11:53.746Z,58208.00
2023-02-25T12:12:53.734Z,48864.00
2023-02-25T12:13:53.745Z,35936.00
2023-02-25T12:14:53.728Z,40032.00
2023-02-25T12:15:53.746Z,39328.00
2023-02-25T12:16:53.689Z,36000.00
2023-02-25T12:17:53.667Z,42752.00
2023-02-25T12:18:53.692Z,122784.00
2023-02-25T12:19:53.653Z,27392.00
2023-02-25T12:20:53.657Z,112320.00
2023-02-25T12:21:53.640Z,111104.00
2023-02-25T12:22:53.620Z,105376.00
2023-02-25T12:23:53.613Z,104800.00
2023-02-25T12:24:53.591Z,101760.00
2023-02-25T12:25:53.585Z,98816.00
2023-02-25T12:26:53.581Z,101920.00
2023-02-25T12:27:53.600Z,61056.00
2023-02-25T12:28:53.616Z,63744.00
2023-02-25T12:29:53.546Z,93472.00
2023-02-25T12:30:53.573Z,16056.00
2023-02-25T12:31:53.733Z,92192.00
2023-02-25T12:32:53.505Z,93216.00
2023-02-25T12:33:53.491Z,93376.00
2023-02-25T12:34:53.484Z,56832.00